Time;durP1;ratioP1;P1;durP2;ratioP2;P2;SDS_P1;SDS_P2;PMS_P1;PMS_P2;Temp;Humidity;BMP_temperature;BMP_pressure;BME280_temperature;BME280_humidity;BME280_pressure;Samples;Min_cycle;Max_cycle;Signal;HPM_P1;HPM_P2
2021/10/20 00:00:27;;;;;;;6.40;4.00;;;17.70;76.90;;;;;;10499619;28;20192;-46
2021/10/20 00:05:28;;;;;;;6.30;4.53;;;17.70;76.90;;;;;;10498629;28;20037;-46
2021/10/20 00:10:29;;;;;;;7.82;4.53;;;17.70;77.00;;;;;;10499006;28;20028;-47
2021/10/20 00:15:30;;;;;;;5.07;4.07;;;17.70;76.90;;;;;;10497572;28;20389;-45
2021/10/20 00:20:31;;;;;;;4.32;3.50;;;17.70;76.80;;;;;;10497524;28;20033;-47
2021/10/20 00:25:31;;;;;;;5.28;3.97;;;17.70;76.70;;;;;;10497890;28;20036;-47
2021/10/20 00:30:33;;;;;;;6.10;3.95;;;17.70;76.70;;;;;;10497024;28;20027;-46
2021/10/20 00:35:33;;;;;;;5.38;3.97;;;17.70;76.50;;;;;;10495713;28;20028;-46
2021/10/20 00:40:34;;;;;;;5.15;4.35;;;17.70;76.50;;;;;;10497751;28;20531;-46
2021/10/20 00:45:35;;;;;;;5.45;4.18;;;17.70;76.50;;;;;;10497647;28;20035;-45
2021/10/20 00:50:36;;;;;;;4.55;3.20;;;17.70;76.50;;;;;;10503870;28;20388;-45
2021/10/20 00:55:37;;;;;;;4.60;3.22;;;17.70;76.50;;;;;;10497146;28;20036;-45
2021/10/20 01:00:38;;;;;;;5.68;4.00;;;17.70;76.50;;;;;;10495741;28;20465;-45
2021/10/20 01:05:39;;;;;;;5.25;3.67;;;17.70;76.40;;;;;;10496269;28;20047;-46
2021/10/20 01:10:40;;;;;;;5.25;4.13;;;17.70;76.50;;;;;;10497085;28;20032;-45
2021/10/20 01:15:41;;;;;;;6.13;3.80;;;17.70;76.40;;;;;;10495510;28;20087;-46
2021/10/20 01:20:43;;;;;;;5.53;4.72;;;17.70;76.50;;;;;;10495691;28;20048;-45
2021/10/20 01:25:44;;;;;;;4.57;3.47;;;17.70;76.50;;;;;;10495527;28;20044;-46
2021/10/20 01:30:44;;;;;;;4.55;3.33;;;17.70;76.40;;;;;;10496620;28;20034;-46
2021/10/20 01:35:45;;;;;;;4.18;3.17;;;17.70;76.30;;;;;;10496056;28;20068;-45
2021/10/20 01:40:46;;;;;;;5.60;4.22;;;17.70;76.40;;;;;;10495210;28;20177;-46
2021/10/20 01:45:47;;;;;;;4.35;3.38;;;17.60;76.30;;;;;;10496230;28;20086;-46
2021/10/20 01:50:47;;;;;;;4.80;3.70;;;17.60;76.40;;;;;;10508015;28;20468;-46
2021/10/20 01:55:48;;;;;;;4.68;3.50;;;17.60;76.40;;;;;;10494775;28;20028;-45
2021/10/20 02:00:49;;;;;;;4.95;4.15;;;17.60;76.40;;;;;;10495990;28;20103;-45
2021/10/20 02:05:53;;;;;;;5.45;4.10;;;17.60;76.30;;;;;;10494439;28;20102;-45
2021/10/20 02:10:54;;;;;;;4.05;3.22;;;17.60;76.20;;;;;;10500780;28;20028;-46
2021/10/20 02:15:55;;;;;;;4.68;3.35;;;17.70;76.30;;;;;;10491548;28;20037;-45
2021/10/20 02:20:56;;;;;;;5.10;2.95;;;17.60;76.20;;;;;;10503587;28;20040;-45
2021/10/20 02:25:57;;;;;;;4.63;3.15;;;17.70;76.20;;;;;;10503138;28;20461;-46
2021/10/20 02:30:58;;;;;;;5.22;3.53;;;17.60;76.20;;;;;;10503297;28;20029;-45
2021/10/20 02:35:59;;;;;;;4.60;3.58;;;17.60;76.20;;;;;;10502829;28;20024;-46
2021/10/20 02:40:59;;;;;;;4.38;3.50;;;17.60;76.20;;;;;;10502572;28;20048;-45
2021/10/20 02:46:00;;;;;;;3.90;3.08;;;17.60;76.10;;;;;;10502781;28;20108;-45
2021/10/20 02:51:01;;;;;;;4.32;3.78;;;17.60;76.10;;;;;;10503105;28;20119;-46
2021/10/20 02:56:01;;;;;;;5.25;4.25;;;17.60;76.00;;;;;;10502318;28;20033;-45
2021/10/20 03:01:02;;;;;;;5.03;3.50;;;17.60;76.20;;;;;;10500517;28;20468;-46
2021/10/20 03:06:03;;;;;;;6.93;3.72;;;17.60;76.10;;;;;;10501323;28;20035;-47
2021/10/20 03:11:04;;;;;;;5.18;3.00;;;17.60;76.20;;;;;;10501618;28;20116;-46
2021/10/20 03:16:05;;;;;;;4.25;3.47;;;17.60;76.30;;;;;;10489441;28;20111;-46
2021/10/20 03:21:06;;;;;;;4.32;3.28;;;17.60;76.10;;;;;;10500813;28;20064;-45
2021/10/20 03:26:06;;;;;;;4.38;3.13;;;17.60;76.10;;;;;;10499714;28;20051;-47
2021/10/20 03:31:07;;;;;;;4.75;2.88;;;17.60;76.20;;;;;;10500865;28;20439;-45
2021/10/20 03:36:08;;;;;;;4.53;3.53;;;17.60;76.00;;;;;;10500463;28;20108;-46
2021/10/20 03:41:08;;;;;;;3.55;2.95;;;17.60;75.90;;;;;;10500445;28;20036;-46
2021/10/20 03:46:09;;;;;;;5.32;4.00;;;17.60;75.90;;;;;;10514107;28;20036;-45
2021/10/20 03:51:10;;;;;;;3.60;3.15;;;17.60;76.00;;;;;;10499941;28;20020;-46
2021/10/20 03:56:10;;;;;;;4.10;3.15;;;17.60;75.90;;;;;;10498721;28;20128;-46
2021/10/20 04:01:11;;;;;;;4.50;3.28;;;17.60;75.90;;;;;;10498207;28;20176;-45
2021/10/20 04:06:12;;;;;;;4.03;3.10;;;17.60;76.10;;;;;;10499210;28;20115;-46
2021/10/20 04:11:13;;;;;;;4.45;3.10;;;17.60;75.90;;;;;;10499423;28;20056;-46
2021/10/20 04:16:13;;;;;;;3.85;2.90;;;17.60;76.00;;;;;;10499086;28;20051;-46
2021/10/20 04:21:14;;;;;;;3.63;3.00;;;17.60;76.00;;;;;;10498768;28;20107;-47
2021/10/20 04:26:15;;;;;;;3.65;2.95;;;17.60;76.00;;;;;;10476886;28;20067;-45
2021/10/20 04:31:15;;;;;;;4.93;3.25;;;17.60;75.90;;;;;;10493970;28;20032;-45
2021/10/20 04:36:16;;;;;;;5.30;3.45;;;17.60;75.90;;;;;;10496622;28;20465;-45
2021/10/20 04:41:17;;;;;;;3.55;2.60;;;17.60;75.80;;;;;;10493180;28;20049;-46
2021/10/20 04:46:17;;;;;;;4.13;3.33;;;17.70;75.30;;;;;;10496022;28;20064;-48
2021/10/20 04:51:18;;;;;;;4.05;3.08;;;17.90;74.50;;;;;;10506456;28;20115;-46
2021/10/20 04:56:19;;;;;;;4.85;3.55;;;18.20;73.70;;;;;;10497403;28;20107;-49
2021/10/20 05:01:19;;;;;;;5.22;4.05;;;18.50;73.40;;;;;;10496226;28;20037;-46
2021/10/20 05:06:20;;;;;;;6.82;4.30;;;18.60;73.10;;;;;;10496217;28;20063;-48
2021/10/20 05:11:21;;;;;;;8.27;4.53;;;18.70;74.00;;;;;;10497521;28;20499;-47
2021/10/20 05:16:21;;;;;;;6.97;3.95;;;18.80;74.50;;;;;;10492303;28;20059;-47
2021/10/20 05:21:22;;;;;;;9.05;4.32;;;18.70;74.70;;;;;;10496659;28;20032;-47
2021/10/20 05:26:23;;;;;;;10.93;4.32;;;18.70;74.80;;;;;;10496605;28;20066;-47
2021/10/20 05:31:23;;;;;;;9.07;3.90;;;18.80;75.30;;;;;;10496609;28;20111;-46
2021/10/20 05:36:24;;;;;;;8.02;3.88;;;18.70;75.10;;;;;;10496817;28;20493;-48
2021/10/20 05:41:25;;;;;;;9.85;4.40;;;18.70;75.10;;;;;;10493724;28;20400;-48
2021/10/20 05:46:25;;;;;;;10.10;4.15;;;18.60;75.30;;;;;;10499804;28;20127;-48
2021/10/20 05:51:26;;;;;;;9.98;4.28;;;18.60;75.60;;;;;;10504266;28;20071;-48
2021/10/20 05:56:27;;;;;;;13.48;4.80;;;18.50;75.80;;;;;;10502369;28;20503;-47
2021/10/20 06:01:28;;;;;;;17.65;5.47;;;18.60;76.00;;;;;;10499191;28;20051;-50
2021/10/20 06:06:28;;;;;;;16.05;4.80;;;18.60;76.50;;;;;;10503922;28;20035;-47
2021/10/20 06:11:29;;;;;;;11.73;4.80;;;18.60;75.60;;;;;;10503908;28;20368;-48
2021/10/20 06:16:32;;;;;;;9.75;4.75;;;18.40;75.80;;;;;;10503089;28;20119;-47
2021/10/20 06:21:33;;;;;;;9.52;4.85;;;18.30;76.00;;;;;;10437496;28;20051;-47
2021/10/20 06:26:34;;;;;;;12.18;3.80;;;18.30;76.10;;;;;;10500874;28;20044;-47
2021/10/20 06:31:35;;;;;;;10.85;4.20;;;18.20;76.10;;;;;;10502236;28;20031;-48
2021/10/20 06:36:37;;;;;;;13.43;4.82;;;18.20;76.10;;;;;;10500622;28;20514;-50
2021/10/20 06:41:37;;;;;;;13.23;4.50;;;18.20;76.20;;;;;;10501249;28;20416;-46
2021/10/20 06:46:38;;;;;;;15.90;4.70;;;18.20;76.50;;;;;;10501611;28;20111;-50
2021/10/20 06:51:39;;;;;;;10.93;3.90;;;18.30;76.20;;;;;;10492245;28;20064;-48
2021/10/20 06:56:40;;;;;;;10.35;3.72;;;18.20;75.90;;;;;;10500766;28;20029;-48
2021/10/20 07:01:41;;;;;;;11.77;3.58;;;18.30;76.50;;;;;;10500303;28;20067;-47
2021/10/20 07:06:42;;;;;;;8.05;3.90;;;18.30;76.40;;;;;;10501439;28;20441;-48
2021/10/20 07:11:42;;;;;;;8.40;3.97;;;18.30;76.50;;;;;;10499481;28;20099;-46
2021/10/20 07:16:44;;;;;;;13.38;3.67;;;18.30;76.60;;;;;;10496173;28;20163;-48
2021/10/20 07:21:44;;;;;;;12.80;4.97;;;18.30;76.20;;;;;;10497749;28;20101;-47
2021/10/20 07:26:45;;;;;;;7.65;3.60;;;18.30;76.20;;;;;;10497135;28;20526;-47
2021/10/20 07:31:46;;;;;;;12.85;4.15;;;18.30;76.50;;;;;;10496091;28;20051;-50
2021/10/20 07:36:46;;;;;;;13.70;4.20;;;18.30;76.40;;;;;;10497602;28;20381;-52
2021/10/20 07:41:48;;;;;;;7.57;3.40;;;18.30;76.60;;;;;;10498796;28;20119;-58
2021/10/20 07:46:49;;;;;;;10.48;3.92;;;18.20;76.70;;;;;;10496552;28;20425;-56
2021/10/20 07:51:55;;;;;;;13.60;3.80;;;18.20;77.10;;;;;;10505462;28;20020;-48
2021/10/20 07:56:56;;;;;;;17.30;4.53;;;18.20;76.80;;;;;;10497259;28;20136;-54
2021/10/20 08:01:57;;;;;;;13.57;4.82;;;18.20;76.40;;;;;;10497529;28;20631;-49
2021/10/20 08:06:57;;;;;;;11.55;4.20;;;18.10;76.30;;;;;;10495531;28;20529;-51
2021/10/20 08:11:58;;;;;;;7.20;4.15;;;18.10;76.40;;;;;;10496801;28;20101;-52
2021/10/20 08:16:59;;;;;;;10.60;3.80;;;18.10;76.70;;;;;;10482735;28;20039;-51
2021/10/20 08:22:00;;;;;;;8.10;3.83;;;18.10;76.70;;;;;;10495193;28;20039;-49
2021/10/20 08:27:01;;;;;;;7.47;4.03;;;18.00;76.60;;;;;;10496079;28;20029;-52
2021/10/20 08:32:09;;;;;;;10.73;4.13;;;18.00;76.60;;;;;;10490804;28;20452;-54
2021/10/20 08:37:09;;;;;;;9.10;3.92;;;18.00;76.50;;;;;;10448688;28;20045;-51
2021/10/20 08:42:11;;;;;;;5.88;3.75;;;17.90;76.60;;;;;;10448765;28;20401;-51
2021/10/20 08:47:13;;;;;;;10.57;4.00;;;18.00;76.60;;;;;;10448982;28;20029;-52
2021/10/20 08:52:13;;;;;;;8.05;4.18;;;18.00;76.50;;;;;;10459264;28;20092;-53
2021/10/20 08:57:14;;;;;;;5.57;3.45;;;18.00;76.30;;;;;;10448223;28;20493;-49
2021/10/20 09:02:15;;;;;;;9.98;3.97;;;18.00;76.20;;;;;;10448354;28;20108;-52
2021/10/20 09:07:16;;;;;;;6.95;3.67;;;18.00;76.20;;;;;;10447624;28;20030;-51
2021/10/20 09:12:28;;;;;;;6.18;3.40;;;18.00;76.30;;;;;;10446414;28;20088;-49
2021/10/20 09:17:53;;;;;;;6.57;3.80;;;18.00;76.40;;;;;;10447850;28;20119;-49
2021/10/20 09:23:00;;;;;;;5.85;3.92;;;18.00;76.50;;;;;;10447549;28;20108;-52
2021/10/20 09:28:01;;;;;;;6.90;3.70;;;18.00;76.60;;;;;;10446772;28;20136;-50
2021/10/20 09:33:02;;;;;;;8.48;4.28;;;18.00;76.50;;;;;;10432995;28;20116;-48
2021/10/20 09:38:04;;;;;;;8.93;3.50;;;18.00;76.30;;;;;;10446590;28;20108;-51
2021/10/20 09:43:06;;;;;;;9.13;4.07;;;18.00;76.20;;;;;;10420841;28;20040;-50
2021/10/20 09:48:17;;;;;;;6.80;3.80;;;18.00;76.20;;;;;;10417262;28;20034;-48
2021/10/20 09:53:18;;;;;;;6.25;3.78;;;18.00;76.20;;;;;;10426677;28;20026;-50
2021/10/20 09:58:20;;;;;;;5.57;3.72;;;18.00;76.20;;;;;;10418220;28;20033;-48
2021/10/20 10:03:21;;;;;;;5.43;3.72;;;18.00;76.40;;;;;;10418086;28;20044;-47
2021/10/20 10:08:22;;;;;;;4.97;3.45;;;18.10;76.40;;;;;;10415973;28;20129;-53
2021/10/20 10:13:28;;;;;;;6.15;4.05;;;18.10;76.30;;;;;;10417813;28;20021;-52
2021/10/20 10:18:29;;;;;;;7.30;3.72;;;18.10;76.10;;;;;;10413256;28;20029;-48
2021/10/20 10:23:30;;;;;;;4.85;3.17;;;18.10;76.00;;;;;;10411779;28;20038;-51
2021/10/20 10:28:33;;;;;;;7.80;4.40;;;18.10;76.10;;;;;;10415501;28;20123;-49
2021/10/20 10:33:54;;;;;;;4.93;3.63;;;18.00;76.20;;;;;;10417231;28;20111;-48
2021/10/20 10:38:58;;;;;;;4.68;3.50;;;18.00;76.20;;;;;;10401288;28;20033;-50
2021/10/20 10:44:02;;;;;;;10.27;4.03;;;18.00;76.20;;;;;;10417211;28;20482;-51
2021/10/20 10:49:04;;;;;;;4.75;3.63;;;18.00;76.20;;;;;;10425407;28;20116;-50
2021/10/20 10:54:05;;;;;;;5.68;3.28;;;18.00;76.20;;;;;;10418496;28;20037;-49
2021/10/20 10:59:09;;;;;;;4.28;3.38;;;18.00;76.20;;;;;;10405736;28;20489;-50
2021/10/20 11:04:20;;;;;;;6.15;3.63;;;18.00;76.20;;;;;;10412344;28;20482;-51
2021/10/20 11:09:31;;;;;;;10.32;4.85;;;18.00;76.20;;;;;;10397742;28;20033;-53
2021/10/20 11:14:32;;;;;;;7.55;3.90;;;18.20;76.40;;;;;;10415734;28;20026;-51
2021/10/20 11:19:33;;;;;;;27.83;4.50;;;18.20;76.40;;;;;;10414650;28;20486;-49
2021/10/20 11:24:41;;;;;;;7.53;3.45;;;18.30;76.80;;;;;;10415402;28;20061;-48
2021/10/20 11:29:45;;;;;;;5.95;3.67;;;18.30;76.80;;;;;;10414353;28;20032;-49
2021/10/20 11:34:47;;;;;;;7.07;3.50;;;18.30;77.10;;;;;;10414816;28;20037;-50
2021/10/20 11:40:03;;;;;;;7.93;3.90;;;18.30;76.40;;;;;;10414732;28;20025;-52
2021/10/20 11:45:05;;;;;;;10.13;4.35;;;18.30;76.40;;;;;;10415001;28;20492;-56
2021/10/20 11:50:14;;;;;;;8.80;3.75;;;18.20;76.40;;;;;;10425984;28;20147;-49
2021/10/20 11:55:15;;;;;;;9.23;4.32;;;18.20;76.40;;;;;;10412782;28;20083;-50
2021/10/20 12:00:16;;;;;;;6.40;3.75;;;18.10;76.50;;;;;;10409486;28;20432;-51
2021/10/20 12:05:17;;;;;;;9.23;3.72;;;18.10;76.50;;;;;;10411977;28;20396;-52
2021/10/20 12:10:19;;;;;;;6.47;4.28;;;18.10;76.60;;;;;;10411977;28;20105;-52
2021/10/20 12:15:21;;;;;;;7.38;4.32;;;18.10;76.70;;;;;;10411765;28;20348;-50
2021/10/20 12:20:22;;;;;;;7.13;3.80;;;18.00;76.60;;;;;;10412044;28;20041;-51
2021/10/20 12:25:23;;;;;;;5.85;4.10;;;18.00;76.60;;;;;;10409897;28;20105;-48
2021/10/20 12:30:23;;;;;;;6.30;3.63;;;18.00;76.60;;;;;;10406835;28;20526;-52
2021/10/20 12:35:25;;;;;;;12.90;5.07;;;18.10;76.70;;;;;;10412954;28;20068;-55
2021/10/20 12:40:27;;;;;;;13.50;5.57;;;18.20;77.10;;;;;;10412699;28;20037;-54
2021/10/20 12:45:31;;;;;;;13.25;5.25;;;18.20;76.50;;;;;;10411999;28;20021;-54
2021/10/20 12:50:37;;;;;;;9.27;4.90;;;18.20;76.60;;;;;;10412477;28;20379;-53
2021/10/20 12:55:44;;;;;;;20.42;6.22;;;18.20;76.70;;;;;;10412391;28;20029;-52
2021/10/20 13:00:46;;;;;;;14.43;5.75;;;18.20;76.90;;;;;;10411926;28;20041;-53
2021/10/20 13:05:47;;;;;;;20.40;7.25;;;18.30;77.20;;;;;;10403236;28;20034;-53
2021/10/20 13:10:50;;;;;;;12.93;4.85;;;18.30;77.00;;;;;;10411139;28;20033;-53
2021/10/20 13:15:52;;;;;;;16.60;5.25;;;18.20;76.90;;;;;;10395716;28;20044;-53
2021/10/20 13:20:53;;;;;;;18.38;6.15;;;18.20;77.20;;;;;;10419272;28;20026;-52
2021/10/20 13:25:53;;;;;;;30.95;7.57;;;18.20;77.30;;;;;;10419242;28;20116;-54
2021/10/20 13:30:54;;;;;;;25.40;7.63;;;18.20;77.80;;;;;;10419194;28;20085;-53
2021/10/20 13:35:55;;;;;;;17.33;6.40;;;18.20;77.90;;;;;;10419938;28;20072;-51
2021/10/20 13:40:55;;;;;;;22.58;6.60;;;18.20;77.60;;;;;;10419723;28;20124;-53
2021/10/20 13:45:56;;;;;;;15.48;6.35;;;18.10;77.60;;;;;;10419745;28;20117;-51
2021/10/20 13:50:57;;;;;;;20.15;6.05;;;18.10;77.60;;;;;;10431005;28;20066;-51
2021/10/20 13:55:58;;;;;;;17.08;5.93;;;18.10;77.70;;;;;;10419622;28;20421;-51
2021/10/20 14:01:00;;;;;;;17.50;6.10;;;18.10;77.60;;;;;;10418786;28;20037;-53
2021/10/20 14:06:01;;;;;;;14.20;5.75;;;18.00;77.60;;;;;;10414790;28;20053;-51
2021/10/20 14:11:02;;;;;;;19.60;6.40;;;18.10;77.60;;;;;;10414365;28;20018;-51
2021/10/20 14:16:04;;;;;;;11.88;5.45;;;18.00;77.60;;;;;;10417827;28;20017;-54
2021/10/20 14:21:07;;;;;;;14.48;5.63;;;18.00;77.60;;;;;;10416385;28;20068;-50
2021/10/20 14:26:10;;;;;;;13.13;5.20;;;18.00;77.60;;;;;;10417099;28;20037;-54
2021/10/20 14:31:11;;;;;;;14.48;5.53;;;18.00;77.50;;;;;;10418111;28;20394;-53
2021/10/20 14:36:11;;;;;;;18.60;4.93;;;18.00;77.50;;;;;;10414833;28;20032;-50
2021/10/20 14:41:13;;;;;;;8.98;4.88;;;18.00;77.60;;;;;;10418094;28;20030;-52
2021/10/20 14:46:14;;;;;;;13.55;4.97;;;18.00;77.60;;;;;;10417842;28;20382;-51
2021/10/20 14:51:14;;;;;;;12.25;5.72;;;18.00;77.40;;;;;;10426964;28;20029;-52
2021/10/20 14:56:15;;;;;;;9.90;5.35;;;18.00;77.50;;;;;;10406595;28;20552;-55
2021/10/20 15:01:16;;;;;;;13.40;5.32;;;18.00;77.40;;;;;;10411290;28;20040;-52
2021/10/20 15:06:17;;;;;;;13.20;5.22;;;18.20;77.20;;;;;;10415054;28;20561;-49
2021/10/20 15:11:19;;;;;;;26.95;6.93;;;18.20;77.00;;;;;;10414940;28;20133;-49
2021/10/20 15:16:21;;;;;;;32.65;7.80;;;18.30;77.60;;;;;;10416280;28;20065;-50
2021/10/20 15:21:29;;;;;;;27.15;6.47;;;18.20;77.60;;;;;;10415881;28;20026;-55
2021/10/20 15:26:30;;;;;;;21.83;7.47;;;18.30;77.70;;;;;;10415822;28;20036;-54
2021/10/20 15:31:31;;;;;;;32.97;8.05;;;18.50;77.40;;;;;;10415262;28;20067;-54
2021/10/20 15:36:32;;;;;;;16.45;6.82;;;18.60;77.30;;;;;;10415313;28;20394;-56
2021/10/20 15:41:37;;;;;;;33.03;11.57;;;18.70;76.90;;;;;;10414780;28;20443;-54
2021/10/20 15:46:37;;;;;;;19.45;8.00;;;18.90;77.80;;;;;;10406672;28;20038;-48
2021/10/20 15:51:39;;;;;;;23.73;9.10;;;18.90;77.20;;;;;;10426358;28;20459;-53
2021/10/20 15:56:40;;;;;;;24.23;8.23;;;19.00;78.60;;;;;;10414762;28;20100;-51
2021/10/20 16:01:42;;;;;;;24.33;9.32;;;19.00;79.00;;;;;;10414271;28;20037;-52
2021/10/20 16:06:42;;;;;;;17.45;8.52;;;19.00;78.40;;;;;;10412259;28;20108;-52
2021/10/20 16:11:43;;;;;;;16.73;7.00;;;19.00;78.30;;;;;;10413590;28;20108;-52
2021/10/20 16:16:44;;;;;;;18.73;7.63;;;19.00;78.30;;;;;;10413886;28;20128;-54
2021/10/20 16:21:45;;;;;;;15.80;7.47;;;18.90;78.50;;;;;;10413735;28;20052;-50
2021/10/20 16:26:45;;;;;;;20.00;8.13;;;19.00;78.20;;;;;;10413895;28;20034;-46
2021/10/20 16:31:46;;;;;;;19.50;8.98;;;19.10;91.90;;;;;;10413620;28;20135;-50
2021/10/20 16:36:47;;;;;;;27.63;8.60;;;18.90;78.20;;;;;;10413766;28;20042;-52
2021/10/20 16:41:47;;;;;;;26.13;8.20;;;18.90;78.50;;;;;;10413638;28;20090;-51
2021/10/20 16:46:48;;;;;;;16.55;7.65;;;18.90;78.50;;;;;;10413222;28;20075;-49
2021/10/20 16:51:49;;;;;;;18.77;6.43;;;18.80;78.40;;;;;;10429542;28;20444;-48
2021/10/20 16:56:52;;;;;;;15.18;6.70;;;18.70;78.40;;;;;;10422019;28;20458;-47
2021/10/20 17:01:53;;;;;;;10.23;6.25;;;18.60;78.40;;;;;;10421244;28;20037;-48
2021/10/20 17:06:53;;;;;;;20.52;8.48;;;18.60;78.60;;;;;;10421110;28;20115;-47
2021/10/20 17:11:54;;;;;;;21.42;7.80;;;18.60;78.60;;;;;;10419993;28;20524;-47
2021/10/20 17:16:55;;;;;;;10.93;6.22;;;18.50;78.30;;;;;;10421150;28;20025;-49
2021/10/20 17:21:57;;;;;;;12.27;6.63;;;18.50;78.40;;;;;;10409448;28;20036;-51
2021/10/20 17:26:58;;;;;;;12.95;6.07;;;18.40;78.60;;;;;;10419746;28;20025;-51
2021/10/20 17:31:59;;;;;;;11.40;6.30;;;18.40;78.60;;;;;;10420626;28;20448;-48
2021/10/20 17:36:59;;;;;;;10.95;6.10;;;18.40;78.60;;;;;;10420497;28;20025;-51
2021/10/20 17:42:02;;;;;;;10.43;5.78;;;18.30;78.50;;;;;;10419575;28;20061;-49
2021/10/20 17:47:03;;;;;;;12.02;5.82;;;18.30;78.50;;;;;;10419008;28;20044;-53
2021/10/20 17:52:04;;;;;;;10.75;5.45;;;18.40;78.30;;;;;;10430399;28;20112;-48
2021/10/20 17:57:05;;;;;;;7.72;5.47;;;18.50;77.90;;;;;;10415848;28;20029;-52
2021/10/20 18:02:05;;;;;;;12.93;6.13;;;18.40;77.90;;;;;;10413044;28;20040;-54
2021/10/20 18:07:06;;;;;;;14.05;5.88;;;18.40;78.20;;;;;;10417735;28;20032;-52
2021/10/20 18:12:08;;;;;;;10.30;5.53;;;18.30;78.10;;;;;;10416843;28;20113;-50
2021/10/20 18:17:10;;;;;;;9.35;5.50;;;18.30;78.40;;;;;;10407288;28;20390;-53
2021/10/20 18:22:11;;;;;;;10.65;5.78;;;18.30;78.60;;;;;;10402076;28;20114;-54
2021/10/20 18:27:17;;;;;;;14.10;5.60;;;18.30;78.70;;;;;;10405713;28;20038;-54
2021/10/20 18:32:19;;;;;;;12.43;5.70;;;18.30;78.80;;;;;;10408742;28;20045;-53
2021/10/20 18:37:20;;;;;;;8.52;5.10;;;18.30;78.80;;;;;;10416319;28;20021;-54
2021/10/20 18:42:21;;;;;;;10.23;5.30;;;18.30;78.80;;;;;;10412512;28;20628;-54
2021/10/20 18:47:26;;;;;;;9.50;5.75;;;18.30;78.90;;;;;;10407970;28;20065;-52
2021/10/20 18:52:27;;;;;;;9.10;6.10;;;18.30;78.90;;;;;;10420318;28;20034;-54
2021/10/20 18:57:28;;;;;;;9.07;5.22;;;18.30;78.90;;;;;;10417039;28;20033;-54
2021/10/20 19:02:28;;;;;;;10.95;5.47;;;18.30;78.90;;;;;;10407612;28;20544;-54
2021/10/20 19:07:30;;;;;;;10.85;6.68;;;18.30;78.90;;;;;;10414416;28;20466;-54
2021/10/20 19:12:30;;;;;;;7.97;5.22;;;18.30;78.90;;;;;;10415107;28;20026;-53
2021/10/20 19:17:31;;;;;;;8.30;5.18;;;18.40;78.80;;;;;;10416570;28;20106;-52
2021/10/20 19:22:33;;;;;;;7.00;5.28;;;18.30;78.70;;;;;;10415061;28;20025;-50
2021/10/20 19:27:34;;;;;;;7.60;5.30;;;18.30;78.80;;;;;;10416007;28;20060;-53
2021/10/20 19:32:35;;;;;;;7.75;5.03;;;18.30;78.80;;;;;;10416237;28;20037;-53
2021/10/20 19:37:37;;;;;;;8.65;5.25;;;18.20;78.80;;;;;;10402693;28;20034;-50
2021/10/20 19:42:38;;;;;;;10.82;5.25;;;18.20;78.80;;;;;;10415737;28;20529;-52
2021/10/20 19:47:39;;;;;;;8.18;4.95;;;18.20;78.80;;;;;;10415585;28;20025;-53
2021/10/20 19:52:44;;;;;;;6.63;5.00;;;18.20;78.80;;;;;;10430919;28;20025;-54
2021/10/20 19:57:45;;;;;;;6.80;5.30;;;18.10;78.70;;;;;;10414935;28;20029;-54
2021/10/20 20:02:46;;;;;;;7.75;4.50;;;18.10;78.70;;;;;;10415217;28;20038;-52
2021/10/20 20:07:49;;;;;;;8.00;5.03;;;18.10;78.70;;;;;;10414362;28;20378;-53
2021/10/20 20:12:49;;;;;;;8.48;5.30;;;18.10;78.70;;;;;;10412399;28;20034;-54
2021/10/20 20:17:50;;;;;;;5.25;4.32;;;18.10;78.70;;;;;;10404882;28;20025;-54
2021/10/20 20:22:56;;;;;;;6.25;5.05;;;18.10;78.70;;;;;;10412749;28;20104;-52
2021/10/20 20:27:57;;;;;;;8.75;4.63;;;18.10;78.70;;;;;;10413708;28;20060;-53
2021/10/20 20:32:57;;;;;;;6.28;4.35;;;18.10;78.60;;;;;;10411156;28;20355;-53
2021/10/20 20:38:00;;;;;;;5.93;4.40;;;18.00;78.50;;;;;;10411853;28;20025;-53
2021/10/20 20:43:01;;;;;;;6.22;4.47;;;18.00;78.50;;;;;;10412299;28;20057;-53
2021/10/20 20:48:02;;;;;;;5.50;4.45;;;18.00;78.50;;;;;;10424871;28;20041;-56
2021/10/20 20:53:04;;;;;;;6.47;4.43;;;18.00;78.50;;;;;;10413946;28;20030;-53
2021/10/20 20:58:05;;;;;;;8.57;4.95;;;18.00;78.50;;;;;;10413921;28;20521;-54
2021/10/20 21:03:05;;;;;;;6.45;4.30;;;18.00;78.50;;;;;;10413716;28;20030;-53
2021/10/20 21:08:06;;;;;;;7.13;4.60;;;18.00;78.40;;;;;;10412358;28;20038;-52
2021/10/20 21:13:08;;;;;;;5.95;4.15;;;18.00;78.40;;;;;;10412540;28;20033;-50
2021/10/20 21:18:09;;;;;;;5.82;3.88;;;18.00;78.40;;;;;;10413736;28;20111;-53
2021/10/20 21:23:09;;;;;;;5.93;3.88;;;18.00;78.30;;;;;;10413451;28;20197;-48
2021/10/20 21:28:10;;;;;;;6.38;3.55;;;18.00;78.30;;;;;;10413033;28;20537;-54
2021/10/20 21:33:11;;;;;;;7.78;4.25;;;18.00;78.30;;;;;;10413359;28;20485;-51
2021/10/20 21:38:12;;;;;;;6.25;3.95;;;17.90;78.30;;;;;;10414633;28;20486;-50
2021/10/20 21:43:13;;;;;;;6.82;3.78;;;17.90;78.20;;;;;;10420182;28;20041;-54
2021/10/20 21:49:09;;;;;;;5.03;3.58;;;18.00;78.30;;;;;;10421705;28;20117;-54
2021/10/20 21:54:51;;;;;;;7.88;4.28;;;17.90;78.20;;;;;;10409375;28;20065;-52
2021/10/20 21:59:52;;;;;;;5.40;3.20;;;17.90;78.40;;;;;;10419515;28;20390;-53
2021/10/20 22:04:53;;;;;;;6.20;4.85;;;17.90;78.40;;;;;;10419347;28;20087;-52
2021/10/20 22:09:54;;;;;;;5.53;3.40;;;17.90;78.40;;;;;;10417045;28;20037;-49
2021/10/20 22:14:55;;;;;;;5.25;3.63;;;17.90;78.30;;;;;;10419256;28;20034;-52
2021/10/20 22:19:56;;;;;;;4.57;3.20;;;17.90;78.30;;;;;;10418839;28;20521;-49
2021/10/20 22:24:56;;;;;;;7.25;3.80;;;17.90;78.20;;;;;;10418553;28;20029;-53
2021/10/20 22:29:58;;;;;;;5.07;3.67;;;17.90;78.20;;;;;;10418410;28;20433;-52
2021/10/20 22:34:58;;;;;;;8.32;3.80;;;17.90;78.20;;;;;;10418238;28;20047;-54
2021/10/20 22:39:59;;;;;;;4.28;3.33;;;17.90;78.20;;;;;;10413533;28;20386;-53
2021/10/20 22:45:00;;;;;;;4.68;3.33;;;17.90;78.10;;;;;;10417643;28;20029;-49
2021/10/20 22:50:09;;;;;;;6.22;3.92;;;17.90;78.10;;;;;;10423403;28;20057;-49
2021/10/20 22:55:14;;;;;;;4.20;3.03;;;17.80;78.00;;;;;;10417711;28;20108;-53
2021/10/20 23:00:18;;;;;;;3.72;2.90;;;17.80;78.00;;;;;;10416003;28;20033;-50
2021/10/20 23:05:20;;;;;;;4.35;3.35;;;17.80;78.00;;;;;;10417179;28;20039;-51
2021/10/20 23:10:21;;;;;;;4.53;3.50;;;17.80;77.90;;;;;;10416612;28;20037;-51
2021/10/20 23:15:22;;;;;;;4.70;3.25;;;17.80;78.00;;;;;;10416536;28;20041;-49
2021/10/20 23:20:23;;;;;;;6.22;3.92;;;17.80;77.90;;;;;;10417193;28;20053;-52
2021/10/20 23:25:24;;;;;;;4.43;2.72;;;17.80;77.90;;;;;;10416123;28;20039;-53
2021/10/20 23:30:25;;;;;;;4.70;3.55;;;17.80;78.00;;;;;;10416025;28;20053;-54
2021/10/20 23:35:26;;;;;;;5.30;3.55;;;17.80;77.90;;;;;;10415895;28;20032;-52
2021/10/20 23:40:27;;;;;;;4.80;2.97;;;17.80;77.90;;;;;;10415641;28;20036;-49
2021/10/20 23:45:27;;;;;;;5.07;2.95;;;17.80;77.90;;;;;;10415314;28;20624;-49
2021/10/20 23:50:28;;;;;;;3.97;3.20;;;17.80;77.90;;;;;;10416330;28;20026;-54
2021/10/20 23:55:29;;;;;;;6.03;3.40;;;17.80;77.90;;;;;;10415086;28;20064;-50
